sensor_id;sensor_type;location;lat;lon;timestamp;pressure;altitude;pressure_sealevel;temperature;humidity
64711;BME280;51139;45.626;6.850;2022-08-19T00:00:08;81903.41;;;12.13;74.62
64711;BME280;51139;45.626;6.850;2022-08-19T00:02:35;81910.22;;;12.26;74.70
64711;BME280;51139;45.626;6.850;2022-08-19T00:05:02;81904.31;;;11.66;76.17
64711;BME280;51139;45.626;6.850;2022-08-19T00:07:28;81901.41;;;11.23;77.83
64711;BME280;51139;45.626;6.850;2022-08-19T00:09:54;81904.34;;;11.57;77.71
64711;BME280;51139;45.626;6.850;2022-08-19T00:12:19;81901.06;;;11.88;76.61
64711;BME280;51139;45.626;6.850;2022-08-19T00:14:45;81905.59;;;12.26;74.53
64711;BME280;51139;45.626;6.850;2022-08-19T00:17:10;81902.63;;;12.42;74.15
64711;BME280;51139;45.626;6.850;2022-08-19T00:19:36;81898.22;;;12.57;73.66
64711;BME280;51139;45.626;6.850;2022-08-19T00:22:02;81905.97;;;12.74;72.29
64711;BME280;51139;45.626;6.850;2022-08-19T00:24:28;81903.09;;;12.60;73.16
64711;BME280;51139;45.626;6.850;2022-08-19T00:26:55;81904.00;;;11.82;76.03
64711;BME280;51139;45.626;6.850;2022-08-19T00:29:23;81910.97;;;11.87;76.03
64711;BME280;51139;45.626;6.850;2022-08-19T00:31:49;81889.56;;;12.15;75.29
64711;BME280;51139;45.626;6.850;2022-08-19T00:34:21;81893.47;;;12.23;75.43
64711;BME280;51139;45.626;6.850;2022-08-19T00:36:47;81890.22;;;11.64;77.04
64711;BME280;51139;45.626;6.850;2022-08-19T00:39:13;81903.78;;;11.19;79.06
64711;BME280;51139;45.626;6.850;2022-08-19T00:41:39;81895.09;;;10.69;81.38
64711;BME280;51139;45.626;6.850;2022-08-19T00:44:06;81903.03;;;10.69;82.35
64711;BME280;51139;45.626;6.850;2022-08-19T00:46:33;81899.16;;;10.80;82.07
64711;BME280;51139;45.626;6.850;2022-08-19T00:49:15;81890.06;;;10.73;82.66
64711;BME280;51139;45.626;6.850;2022-08-19T00:51:45;81885.66;;;11.05;81.79
64711;BME280;51139;45.626;6.850;2022-08-19T00:54:12;81879.63;;;10.95;81.68
64711;BME280;51139;45.626;6.850;2022-08-19T00:56:41;81881.44;;;11.02;80.43
64711;BME280;51139;45.626;6.850;2022-08-19T00:59:06;81888.94;;;10.57;82.67
64711;BME280;51139;45.626;6.850;2022-08-19T01:01:39;81898.50;;;10.05;85.07
64711;BME280;51139;45.626;6.850;2022-08-19T01:04:06;81900.53;;;9.59;87.91
64711;BME280;51139;45.626;6.850;2022-08-19T01:06:32;81905.41;;;10.85;82.99
64711;BME280;51139;45.626;6.850;2022-08-19T01:08:59;81901.13;;;11.19;79.28
64711;BME280;51139;45.626;6.850;2022-08-19T01:11:26;81897.50;;;11.24;78.70
64711;BME280;51139;45.626;6.850;2022-08-19T01:13:53;81908.06;;;10.75;79.95
64711;BME280;51139;45.626;6.850;2022-08-19T01:16:21;81904.91;;;11.16;79.48
64711;BME280;51139;45.626;6.850;2022-08-19T01:18:48;81900.16;;;11.53;76.71
64711;BME280;51139;45.626;6.850;2022-08-19T01:23:48;81885.84;;;12.08;75.01
64711;BME280;51139;45.626;6.850;2022-08-19T01:26:17;81896.19;;;11.84;76.21
64711;BME280;51139;45.626;6.850;2022-08-19T01:28:46;81895.78;;;11.78;76.96
64711;BME280;51139;45.626;6.850;2022-08-19T01:31:17;81909.00;;;12.17;75.26
64711;BME280;51139;45.626;6.850;2022-08-19T01:33:44;81907.28;;;12.32;73.97
64711;BME280;51139;45.626;6.850;2022-08-19T01:36:12;81903.94;;;12.21;73.96
64711;BME280;51139;45.626;6.850;2022-08-19T01:38:40;81901.34;;;12.02;76.90
64711;BME280;51139;45.626;6.850;2022-08-19T01:41:07;81904.47;;;11.19;79.80
64711;BME280;51139;45.626;6.850;2022-08-19T01:43:33;81905.28;;;10.83;82.79
64711;BME280;51139;45.626;6.850;2022-08-19T01:45:59;81903.75;;;10.70;84.56
64711;BME280;51139;45.626;6.850;2022-08-19T01:48:24;81903.72;;;10.60;85.87
64711;BME280;51139;45.626;6.850;2022-08-19T01:50:49;81893.16;;;11.58;81.26
64711;BME280;51139;45.626;6.850;2022-08-19T01:53:15;81876.13;;;11.61;79.99
64711;BME280;51139;45.626;6.850;2022-08-19T01:55:42;81880.19;;;11.13;83.52
64711;BME280;51139;45.626;6.850;2022-08-19T01:58:12;81890.78;;;11.03;84.57
64711;BME280;51139;45.626;6.850;2022-08-19T02:00:40;81893.31;;;11.11;84.36
64711;BME280;51139;45.626;6.850;2022-08-19T02:03:05;81907.44;;;10.47;87.81
64711;BME280;51139;45.626;6.850;2022-08-19T02:05:31;81912.63;;;10.55;86.81
64711;BME280;51139;45.626;6.850;2022-08-19T02:07:57;81905.06;;;10.14;89.65
64711;BME280;51139;45.626;6.850;2022-08-19T02:10:24;81915.50;;;9.12;95.89
64711;BME280;51139;45.626;6.850;2022-08-19T02:12:50;81918.84;;;9.30;98.00
64711;BME280;51139;45.626;6.850;2022-08-19T02:15:16;81919.66;;;9.50;95.24
64711;BME280;51139;45.626;6.850;2022-08-19T02:17:44;81909.00;;;9.85;94.18
64711;BME280;51139;45.626;6.850;2022-08-19T02:20:10;81909.25;;;10.54;89.87
64711;BME280;51139;45.626;6.850;2022-08-19T02:22:35;81908.09;;;11.04;85.57
64711;BME280;51139;45.626;6.850;2022-08-19T02:25:01;81906.50;;;10.62;87.38
64711;BME280;51139;45.626;6.850;2022-08-19T02:27:26;81900.53;;;10.91;85.86
64711;BME280;51139;45.626;6.850;2022-08-19T02:29:52;81895.94;;;10.82;88.10
64711;BME280;51139;45.626;6.850;2022-08-19T02:32:19;81897.38;;;11.22;85.18
64711;BME280;51139;45.626;6.850;2022-08-19T02:34:45;81887.84;;;11.68;81.08
64711;BME280;51139;45.626;6.850;2022-08-19T02:37:11;81887.44;;;10.93;82.38
64711;BME280;51139;45.626;6.850;2022-08-19T02:39:57;81890.66;;;11.41;81.92
64711;BME280;51139;45.626;6.850;2022-08-19T02:42:23;81902.53;;;11.20;81.17
64711;BME280;51139;45.626;6.850;2022-08-19T02:44:48;81909.81;;;10.53;84.46
64711;BME280;51139;45.626;6.850;2022-08-19T02:47:14;81912.50;;;10.62;86.59
64711;BME280;51139;45.626;6.850;2022-08-19T02:49:40;81905.44;;;10.94;86.52
64711;BME280;51139;45.626;6.850;2022-08-19T02:52:06;81908.66;;;11.03;84.38
64711;BME280;51139;45.626;6.850;2022-08-19T02:54:31;81911.25;;;10.73;84.96
64711;BME280;51139;45.626;6.850;2022-08-19T02:56:56;81898.59;;;10.91;83.32
64711;BME280;51139;45.626;6.850;2022-08-19T02:59:22;81905.69;;;10.69;84.19
64711;BME280;51139;45.626;6.850;2022-08-19T03:01:47;81910.38;;;9.59;90.48
64711;BME280;51139;45.626;6.850;2022-08-19T03:04:14;81906.63;;;9.80;94.09
64711;BME280;51139;45.626;6.850;2022-08-19T03:06:43;81909.38;;;10.09;91.25
64711;BME280;51139;45.626;6.850;2022-08-19T03:09:10;81907.06;;;10.23;91.08
64711;BME280;51139;45.626;6.850;2022-08-19T03:11:36;81900.66;;;10.16;89.09
64711;BME280;51139;45.626;6.850;2022-08-19T03:14:04;81909.56;;;9.84;89.73
64711;BME280;51139;45.626;6.850;2022-08-19T03:16:34;81907.91;;;9.88;89.84
64711;BME280;51139;45.626;6.850;2022-08-19T03:19:00;81913.81;;;10.06;89.64
64711;BME280;51139;45.626;6.850;2022-08-19T03:21:29;81910.97;;;10.22;87.68
64711;BME280;51139;45.626;6.850;2022-08-19T03:23:56;81912.03;;;10.46;86.60
64711;BME280;51139;45.626;6.850;2022-08-19T03:26:22;81913.06;;;10.61;84.14
64711;BME280;51139;45.626;6.850;2022-08-19T03:28:48;81913.66;;;10.89;82.84
64711;BME280;51139;45.626;6.850;2022-08-19T03:31:17;81914.63;;;10.84;82.21
64711;BME280;51139;45.626;6.850;2022-08-19T03:33:44;81913.09;;;10.71;82.30
64711;BME280;51139;45.626;6.850;2022-08-19T03:36:17;81921.84;;;10.26;84.84
64711;BME280;51139;45.626;6.850;2022-08-19T03:38:49;81932.81;;;9.85;87.65
64711;BME280;51139;45.626;6.850;2022-08-19T03:41:18;81928.75;;;9.84;89.61
64711;BME280;51139;45.626;6.850;2022-08-19T03:43:45;81922.66;;;10.19;88.58
64711;BME280;51139;45.626;6.850;2022-08-19T03:46:17;81925.91;;;10.00;88.86
64711;BME280;51139;45.626;6.850;2022-08-19T03:48:44;81929.84;;;10.08;88.69
64711;BME280;51139;45.626;6.850;2022-08-19T03:51:23;81928.47;;;9.80;89.29
64711;BME280;51139;45.626;6.850;2022-08-19T03:53:51;81925.06;;;9.70;91.32
64711;BME280;51139;45.626;6.850;2022-08-19T03:56:16;81925.59;;;10.23;89.03
64711;BME280;51139;45.626;6.850;2022-08-19T03:58:42;81927.84;;;10.27;87.92
64711;BME280;51139;45.626;6.850;2022-08-19T04:01:10;81930.13;;;10.40;86.21
64711;BME280;51139;45.626;6.850;2022-08-19T04:03:36;81938.19;;;10.70;84.66
64711;BME280;51139;45.626;6.850;2022-08-19T04:06:12;81941.75;;;10.55;86.12
64711;BME280;51139;45.626;6.850;2022-08-19T04:08:39;81938.78;;;10.13;86.73
64711;BME280;51139;45.626;6.850;2022-08-19T04:11:11;81940.91;;;9.42;91.47
64711;BME280;51139;45.626;6.850;2022-08-19T04:13:38;81947.25;;;9.74;94.45
64711;BME280;51139;45.626;6.850;2022-08-19T04:16:05;81951.75;;;10.19;94.20
64711;BME280;51139;45.626;6.850;2022-08-19T04:18:31;81940.88;;;10.15;94.28
64711;BME280;51139;45.626;6.850;2022-08-19T04:20:58;81948.75;;;10.32;94.66
64711;BME280;51139;45.626;6.850;2022-08-19T04:23:24;81942.53;;;10.10;93.43
64711;BME280;51139;45.626;6.850;2022-08-19T04:25:50;81946.97;;;9.35;97.93
64711;BME280;51139;45.626;6.850;2022-08-19T04:28:15;81961.81;;;8.95;100.00
64711;BME280;51139;45.626;6.850;2022-08-19T04:30:46;81967.50;;;8.92;100.00
64711;BME280;51139;45.626;6.850;2022-08-19T04:33:18;81972.03;;;8.99;100.00
64711;BME280;51139;45.626;6.850;2022-08-19T04:35:46;81982.38;;;8.79;100.00
64711;BME280;51139;45.626;6.850;2022-08-19T04:38:14;81973.22;;;9.51;100.00
64711;BME280;51139;45.626;6.850;2022-08-19T04:40:45;81973.41;;;9.35;100.00
64711;BME280;51139;45.626;6.850;2022-08-19T04:43:30;81972.25;;;9.28;100.00
64711;BME280;51139;45.626;6.850;2022-08-19T04:45:55;81966.72;;;9.34;100.00
64711;BME280;51139;45.626;6.850;2022-08-19T04:48:21;81970.63;;;9.78;100.00
64711;BME280;51139;45.626;6.850;2022-08-19T04:50:52;81960.75;;;9.78;97.92
64711;BME280;51139;45.626;6.850;2022-08-19T04:53:29;81969.00;;;9.38;99.66
64711;BME280;51139;45.626;6.850;2022-08-19T04:55:59;81964.09;;;9.79;100.00
64711;BME280;51139;45.626;6.850;2022-08-19T04:58:28;81956.16;;;10.34;98.07
64711;BME280;51139;45.626;6.850;2022-08-19T05:00:54;81961.16;;;10.30;99.07
64711;BME280;51139;45.626;6.850;2022-08-19T05:03:20;81963.84;;;10.40;98.08
64711;BME280;51139;45.626;6.850;2022-08-19T05:05:48;81972.63;;;9.87;97.39
64711;BME280;51139;45.626;6.850;2022-08-19T05:08:15;81978.53;;;9.33;100.00
64711;BME280;51139;45.626;6.850;2022-08-19T05:10:51;81982.66;;;9.44;100.00
64711;BME280;51139;45.626;6.850;2022-08-19T05:13:18;81978.72;;;9.80;100.00
64711;BME280;51139;45.626;6.850;2022-08-19T05:15:53;81975.97;;;9.43;100.00
64711;BME280;51139;45.626;6.850;2022-08-19T05:18:19;81986.16;;;8.94;100.00
64711;BME280;51139;45.626;6.850;2022-08-19T05:21:10;81989.59;;;9.04;100.00
64711;BME280;51139;45.626;6.850;2022-08-19T05:23:55;81990.22;;;9.12;100.00
64711;BME280;51139;45.626;6.850;2022-08-19T05:26:20;81994.97;;;9.31;100.00
64711;BME280;51139;45.626;6.850;2022-08-19T05:28:47;81994.56;;;9.00;100.00
64711;BME280;51139;45.626;6.850;2022-08-19T05:31:12;81999.78;;;9.43;100.00
64711;BME280;51139;45.626;6.850;2022-08-19T05:33:38;81990.97;;;9.75;100.00
64711;BME280;51139;45.626;6.850;2022-08-19T05:36:05;81993.16;;;9.97;100.00
64711;BME280;51139;45.626;6.850;2022-08-19T05:38:33;82002.13;;;10.11;100.00
64711;BME280;51139;45.626;6.850;2022-08-19T05:40:58;81993.59;;;9.75;100.00
64711;BME280;51139;45.626;6.850;2022-08-19T05:43:23;82002.16;;;9.66;100.00
64711;BME280;51139;45.626;6.850;2022-08-19T05:45:49;81997.72;;;9.69;100.00
64711;BME280;51139;45.626;6.850;2022-08-19T05:48:15;82001.00;;;9.59;100.00
64711;BME280;51139;45.626;6.850;2022-08-19T05:50:45;82009.63;;;9.77;100.00
64711;BME280;51139;45.626;6.850;2022-08-19T05:53:12;82002.34;;;9.96;100.00
64711;BME280;51139;45.626;6.850;2022-08-19T05:55:38;82002.63;;;10.00;100.00
64711;BME280;51139;45.626;6.850;2022-08-19T05:58:04;82012.56;;;10.09;100.00
64711;BME280;51139;45.626;6.850;2022-08-19T06:00:33;82012.44;;;10.07;100.00
64711;BME280;51139;45.626;6.850;2022-08-19T06:02:58;82014.31;;;10.42;100.00
64711;BME280;51139;45.626;6.850;2022-08-19T06:05:28;82006.84;;;10.58;100.00
64711;BME280;51139;45.626;6.850;2022-08-19T06:07:53;82003.53;;;10.12;100.00
64711;BME280;51139;45.626;6.850;2022-08-19T06:10:19;81998.06;;;10.00;100.00
64711;BME280;51139;45.626;6.850;2022-08-19T06:12:47;82005.25;;;9.90;100.00
64711;BME280;51139;45.626;6.850;2022-08-19T06:15:13;82004.44;;;10.52;99.34
64711;BME280;51139;45.626;6.850;2022-08-19T06:17:41;82009.13;;;10.71;95.61
64711;BME280;51139;45.626;6.850;2022-08-19T06:20:11;82012.22;;;9.95;99.97
64711;BME280;51139;45.626;6.850;2022-08-19T06:22:43;82021.03;;;10.25;100.00
64711;BME280;51139;45.626;6.850;2022-08-19T06:25:10;82022.88;;;10.32;100.00
64711;BME280;51139;45.626;6.850;2022-08-19T06:27:36;82026.84;;;10.41;98.50
64711;BME280;51139;45.626;6.850;2022-08-19T06:30:03;82024.84;;;10.32;100.00
64711;BME280;51139;45.626;6.850;2022-08-19T06:32:29;82032.75;;;10.49;100.00
64711;BME280;51139;45.626;6.850;2022-08-19T06:34:55;82040.28;;;10.53;99.88
64711;BME280;51139;45.626;6.850;2022-08-19T06:37:20;82037.31;;;10.76;98.64
64711;BME280;51139;45.626;6.850;2022-08-19T06:39:47;82039.00;;;10.82;97.84
64711;BME280;51139;45.626;6.850;2022-08-19T06:42:12;82039.00;;;10.82;97.85
64711;BME280;51139;45.626;6.850;2022-08-19T06:44:42;82045.13;;;11.21;93.22
64711;BME280;51139;45.626;6.850;2022-08-19T06:47:11;82043.63;;;10.91;93.66
64711;BME280;51139;45.626;6.850;2022-08-19T06:49:37;82051.22;;;10.40;99.20
64711;BME280;51139;45.626;6.850;2022-08-19T06:52:03;82053.69;;;10.37;100.00
64711;BME280;51139;45.626;6.850;2022-08-19T06:54:29;82053.50;;;10.53;98.53
64711;BME280;51139;45.626;6.850;2022-08-19T06:56:56;82054.63;;;10.50;95.23
64711;BME280;51139;45.626;6.850;2022-08-19T06:59:23;82050.63;;;10.59;95.15
64711;BME280;51139;45.626;6.850;2022-08-19T07:01:54;82053.53;;;10.90;92.86
64711;BME280;51139;45.626;6.850;2022-08-19T07:04:23;82058.69;;;10.88;93.08
64711;BME280;51139;45.626;6.850;2022-08-19T07:06:50;82060.56;;;10.68;96.38
64711;BME280;51139;45.626;6.850;2022-08-19T07:09:17;82056.28;;;10.73;95.43
64711;BME280;51139;45.626;6.850;2022-08-19T07:11:47;82057.22;;;11.05;94.46
64711;BME280;51139;45.626;6.850;2022-08-19T07:14:15;82063.28;;;10.88;93.43
64711;BME280;51139;45.626;6.850;2022-08-19T07:16:44;82066.66;;;10.98;93.76
64711;BME280;51139;45.626;6.850;2022-08-19T07:19:11;82068.28;;;10.74;97.07
64711;BME280;51139;45.626;6.850;2022-08-19T07:21:38;82072.50;;;10.87;96.62
64711;BME280;51139;45.626;6.850;2022-08-19T07:24:05;82068.28;;;10.74;95.99
64711;BME280;51139;45.626;6.850;2022-08-19T07:26:33;82065.50;;;11.19;95.51
64711;BME280;51139;45.626;6.850;2022-08-19T07:29:04;82068.88;;;11.39;93.96
64711;BME280;51139;45.626;6.850;2022-08-19T07:31:30;82072.13;;;11.57;90.65
64711;BME280;51139;45.626;6.850;2022-08-19T07:33:57;82067.13;;;11.81;88.13
64711;BME280;51139;45.626;6.850;2022-08-19T07:36:27;82066.16;;;11.66;87.77
64711;BME280;51139;45.626;6.850;2022-08-19T07:38:56;82073.75;;;11.33;91.07
64711;BME280;51139;45.626;6.850;2022-08-19T07:41:23;82077.84;;;11.44;89.96
64711;BME280;51139;45.626;6.850;2022-08-19T07:43:49;82084.94;;;11.31;90.31
64711;BME280;51139;45.626;6.850;2022-08-19T07:46:17;82074.56;;;11.16;92.40
64711;BME280;51139;45.626;6.850;2022-08-19T07:48:46;82083.34;;;10.54;94.52
64711;BME280;51139;45.626;6.850;2022-08-19T07:51:14;82083.06;;;10.49;95.89
64711;BME280;51139;45.626;6.850;2022-08-19T07:53:41;82085.44;;;10.55;96.74
64711;BME280;51139;45.626;6.850;2022-08-19T07:56:06;82087.13;;;10.15;97.44
64711;BME280;51139;45.626;6.850;2022-08-19T07:58:34;82091.19;;;10.89;96.32
64711;BME280;51139;45.626;6.850;2022-08-19T08:01:02;82084.78;;;11.29;94.08
64711;BME280;51139;45.626;6.850;2022-08-19T08:03:28;82091.13;;;11.06;92.99
64711;BME280;51139;45.626;6.850;2022-08-19T08:06:13;82094.72;;;11.48;91.95
64711;BME280;51139;45.626;6.850;2022-08-19T08:08:58;82099.09;;;11.53;92.24
64711;BME280;51139;45.626;6.850;2022-08-19T08:11:35;82090.56;;;11.08;93.95
64711;BME280;51139;45.626;6.850;2022-08-19T08:14:01;82093.69;;;11.24;94.28
64711;BME280;51139;45.626;6.850;2022-08-19T08:16:27;82086.34;;;11.42;94.86
64711;BME280;51139;45.626;6.850;2022-08-19T08:18:56;82090.66;;;11.00;93.99
64711;BME280;51139;45.626;6.850;2022-08-19T08:21:22;82092.72;;;11.29;95.19
64711;BME280;51139;45.626;6.850;2022-08-19T08:23:47;82087.50;;;11.68;93.07
64711;BME280;51139;45.626;6.850;2022-08-19T08:26:13;82085.91;;;12.03;91.87
64711;BME280;51139;45.626;6.850;2022-08-19T08:28:40;82088.75;;;11.67;91.73
64711;BME280;51139;45.626;6.850;2022-08-19T08:31:05;82099.94;;;11.66;94.12
64711;BME280;51139;45.626;6.850;2022-08-19T08:33:30;82102.34;;;11.81;92.14
64711;BME280;51139;45.626;6.850;2022-08-19T08:35:56;82100.25;;;11.90;91.83
64711;BME280;51139;45.626;6.850;2022-08-19T08:38:22;82107.28;;;11.48;95.74
64711;BME280;51139;45.626;6.850;2022-08-19T08:40:50;82100.09;;;11.68;96.01
64711;BME280;51139;45.626;6.850;2022-08-19T08:43:31;82096.44;;;11.63;91.31
64711;BME280;51139;45.626;6.850;2022-08-19T08:46:20;82110.28;;;11.62;96.64
64711;BME280;51139;45.626;6.850;2022-08-19T08:49:28;82112.06;;;11.59;98.62
64711;BME280;51139;45.626;6.850;2022-08-19T08:52:04;82106.06;;;11.12;100.00
64711;BME280;51139;45.626;6.850;2022-08-19T08:54:43;82116.47;;;11.00;100.00
64711;BME280;51139;45.626;6.850;2022-08-19T08:57:17;82117.84;;;11.28;99.84
64711;BME280;51139;45.626;6.850;2022-08-19T08:59:47;82118.84;;;11.33;96.86
64711;BME280;51139;45.626;6.850;2022-08-19T09:02:18;82120.31;;;11.16;98.30
64711;BME280;51139;45.626;6.850;2022-08-19T09:04:43;82114.38;;;11.35;97.63
64711;BME280;51139;45.626;6.850;2022-08-19T09:10:44;82106.78;;;11.79;95.96
64711;BME280;51139;45.626;6.850;2022-08-19T09:13:33;82107.16;;;11.46;97.18
64711;BME280;51139;45.626;6.850;2022-08-19T09:16:05;82113.47;;;11.60;99.02
64711;BME280;51139;45.626;6.850;2022-08-19T09:18:45;82120.84;;;11.52;95.93
64711;BME280;51139;45.626;6.850;2022-08-19T09:21:13;82132.31;;;11.17;98.86
64711;BME280;51139;45.626;6.850;2022-08-19T09:23:39;82128.91;;;11.34;98.23
64711;BME280;51139;45.626;6.850;2022-08-19T09:26:09;82132.94;;;11.35;99.36
64711;BME280;51139;45.626;6.850;2022-08-19T09:28:35;82143.63;;;11.55;97.22
64711;BME280;51139;45.626;6.850;2022-08-19T09:31:02;82135.78;;;11.57;96.38
64711;BME280;51139;45.626;6.850;2022-08-19T09:33:27;82136.50;;;11.58;96.82
64711;BME280;51139;45.626;6.850;2022-08-19T09:36:05;82140.84;;;11.63;97.09
64711;BME280;51139;45.626;6.850;2022-08-19T09:38:32;82138.22;;;11.26;97.89
64711;BME280;51139;45.626;6.850;2022-08-19T09:41:05;82148.34;;;11.47;98.91
64711;BME280;51139;45.626;6.850;2022-08-19T09:43:32;82138.50;;;11.67;98.72
64711;BME280;51139;45.626;6.850;2022-08-19T09:45:59;82136.13;;;11.71;98.06
64711;BME280;51139;45.626;6.850;2022-08-19T09:48:25;82142.13;;;11.72;99.63
64711;BME280;51139;45.626;6.850;2022-08-19T09:50:51;82132.56;;;12.06;97.62
64711;BME280;51139;45.626;6.850;2022-08-19T09:53:16;82134.72;;;11.80;96.64
64711;BME280;51139;45.626;6.850;2022-08-19T09:55:43;82136.28;;;11.93;97.60
64711;BME280;51139;45.626;6.850;2022-08-19T09:58:08;82139.97;;;12.07;97.50
64711;BME280;51139;45.626;6.850;2022-08-19T10:00:34;82149.69;;;11.85;96.67
64711;BME280;51139;45.626;6.850;2022-08-19T10:02:59;82137.81;;;11.29;97.91
64711;BME280;51139;45.626;6.850;2022-08-19T10:08:00;82147.31;;;11.79;97.90
64711;BME280;51139;45.626;6.850;2022-08-19T10:10:26;82149.22;;;12.16;98.62
64711;BME280;51139;45.626;6.850;2022-08-19T10:12:52;82146.41;;;12.24;97.46
64711;BME280;51139;45.626;6.850;2022-08-19T10:15:18;82147.31;;;11.89;96.38
64711;BME280;51139;45.626;6.850;2022-08-19T10:17:46;82145.00;;;12.03;96.75
64711;BME280;51139;45.626;6.850;2022-08-19T10:20:12;82154.09;;;12.10;97.72
64711;BME280;51139;45.626;6.850;2022-08-19T10:22:37;82156.00;;;11.90;97.44
64711;BME280;51139;45.626;6.850;2022-08-19T10:25:04;82158.38;;;11.95;97.19
64711;BME280;51139;45.626;6.850;2022-08-19T10:27:29;82162.94;;;11.85;98.44
64711;BME280;51139;45.626;6.850;2022-08-19T10:29:57;82157.41;;;11.44;98.15
64711;BME280;51139;45.626;6.850;2022-08-19T10:32:22;82165.13;;;11.59;97.92
64711;BME280;51139;45.626;6.850;2022-08-19T10:34:48;82160.25;;;11.65;97.58
64711;BME280;51139;45.626;6.850;2022-08-19T10:37:16;82159.38;;;11.53;98.10
64711;BME280;51139;45.626;6.850;2022-08-19T10:39:45;82162.41;;;11.39;96.61
64711;BME280;51139;45.626;6.850;2022-08-19T10:42:13;82161.59;;;11.47;94.13
64711;BME280;51139;45.626;6.850;2022-08-19T10:44:39;82164.97;;;11.57;97.17
64711;BME280;51139;45.626;6.850;2022-08-19T10:47:05;82172.13;;;11.64;97.88
64711;BME280;51139;45.626;6.850;2022-08-19T10:49:31;82174.50;;;11.33;99.20
64711;BME280;51139;45.626;6.850;2022-08-19T10:52:17;82157.72;;;11.58;97.92
64711;BME280;51139;45.626;6.850;2022-08-19T10:55:03;82160.88;;;11.36;96.05
64711;BME280;51139;45.626;6.850;2022-08-19T10:57:47;82163.03;;;12.05;94.31
64711;BME280;51139;45.626;6.850;2022-08-19T11:00:13;82166.69;;;12.19;94.46
64711;BME280;51139;45.626;6.850;2022-08-19T11:02:38;82169.28;;;12.00;93.02
64711;BME280;51139;45.626;6.850;2022-08-19T11:05:04;82175.66;;;11.39;95.67
64711;BME280;51139;45.626;6.850;2022-08-19T11:07:32;82172.88;;;11.85;95.94
64711;BME280;51139;45.626;6.850;2022-08-19T11:09:57;82170.50;;;11.89;94.89
64711;BME280;51139;45.626;6.850;2022-08-19T11:12:22;82174.97;;;11.86;95.42
64711;BME280;51139;45.626;6.850;2022-08-19T11:14:49;82181.63;;;12.24;95.25
64711;BME280;51139;45.626;6.850;2022-08-19T11:17:15;82180.09;;;12.21;93.92
64711;BME280;51139;45.626;6.850;2022-08-19T11:19:40;82177.31;;;12.19;94.10
64711;BME280;51139;45.626;6.850;2022-08-19T11:22:08;82179.34;;;11.54;95.16
64711;BME280;51139;45.626;6.850;2022-08-19T11:24:34;82188.19;;;11.66;96.46
64711;BME280;51139;45.626;6.850;2022-08-19T11:27:03;82185.94;;;10.98;100.00
64711;BME280;51139;45.626;6.850;2022-08-19T11:29:30;82184.00;;;11.26;100.00
64711;BME280;51139;45.626;6.850;2022-08-19T11:31:56;82182.97;;;11.21;100.00
64711;BME280;51139;45.626;6.850;2022-08-19T11:34:25;82186.97;;;11.77;98.92
64711;BME280;51139;45.626;6.850;2022-08-19T11:36:52;82189.97;;;11.54;100.00
64711;BME280;51139;45.626;6.850;2022-08-19T11:39:21;82195.63;;;11.41;100.00
64711;BME280;51139;45.626;6.850;2022-08-19T11:41:47;82192.28;;;11.77;97.38
64711;BME280;51139;45.626;6.850;2022-08-19T11:44:13;82197.00;;;11.79;97.07
64711;BME280;51139;45.626;6.850;2022-08-19T11:46:41;82184.31;;;11.77;95.42
64711;BME280;51139;45.626;6.850;2022-08-19T11:49:10;82198.47;;;12.00;95.23
64711;BME280;51139;45.626;6.850;2022-08-19T11:51:36;82205.41;;;11.85;93.37
64711;BME280;51139;45.626;6.850;2022-08-19T11:54:01;82205.50;;;12.05;95.19
64711;BME280;51139;45.626;6.850;2022-08-19T11:56:28;82206.06;;;11.66;96.49
64711;BME280;51139;45.626;6.850;2022-08-19T11:58:54;82202.78;;;11.95;97.04
64711;BME280;51139;45.626;6.850;2022-08-19T12:01:23;82213.50;;;11.77;97.25
64711;BME280;51139;45.626;6.850;2022-08-19T12:03:51;82211.72;;;11.90;96.65
64711;BME280;51139;45.626;6.850;2022-08-19T12:06:21;82211.38;;;11.66;96.19
64711;BME280;51139;45.626;6.850;2022-08-19T12:08:49;82209.47;;;11.86;96.87
64711;BME280;51139;45.626;6.850;2022-08-19T12:11:15;82205.50;;;12.05;95.52
64711;BME280;51139;45.626;6.850;2022-08-19T12:13:41;82199.38;;;12.12;96.19
64711;BME280;51139;45.626;6.850;2022-08-19T12:16:13;82206.22;;;12.25;96.84
64711;BME280;51139;45.626;6.850;2022-08-19T12:18:41;82208.06;;;12.22;96.70
64711;BME280;51139;45.626;6.850;2022-08-19T12:21:10;82212.66;;;11.10;99.99
64711;BME280;51139;45.626;6.850;2022-08-19T12:23:36;82202.94;;;11.50;100.00
64711;BME280;51139;45.626;6.850;2022-08-19T12:26:02;82205.78;;;11.72;100.00
64711;BME280;51139;45.626;6.850;2022-08-19T12:28:28;82206.84;;;11.96;98.73
64711;BME280;51139;45.626;6.850;2022-08-19T12:30:53;82211.25;;;12.11;96.22
64711;BME280;51139;45.626;6.850;2022-08-19T12:33:20;82200.19;;;12.05;96.47
64711;BME280;51139;45.626;6.850;2022-08-19T12:35:49;82205.84;;;11.91;95.55
64711;BME280;51139;45.626;6.850;2022-08-19T12:38:15;82216.78;;;11.95;97.19
64711;BME280;51139;45.626;6.850;2022-08-19T12:40:41;82214.03;;;12.13;96.71
64711;BME280;51139;45.626;6.850;2022-08-19T12:43:07;82216.41;;;12.09;96.40
64711;BME280;51139;45.626;6.850;2022-08-19T12:45:33;82209.50;;;11.96;95.78
64711;BME280;51139;45.626;6.850;2022-08-19T12:47:59;82211.88;;;11.92;91.20
64711;BME280;51139;45.626;6.850;2022-08-19T12:50:24;82211.94;;;12.02;90.93
64711;BME280;51139;45.626;6.850;2022-08-19T12:52:50;82217.06;;;12.00;92.37
64711;BME280;51139;45.626;6.850;2022-08-19T12:55:15;82215.47;;;12.34;93.41
64711;BME280;51139;45.626;6.850;2022-08-19T12:57:43;82222.56;;;12.11;95.03
64711;BME280;51139;45.626;6.850;2022-08-19T13:00:17;82225.34;;;12.04;96.73
64711;BME280;51139;45.626;6.850;2022-08-19T13:02:44;82229.03;;;11.91;95.38
64711;BME280;51139;45.626;6.850;2022-08-19T13:05:14;82226.47;;;12.10;92.53
64711;BME280;51139;45.626;6.850;2022-08-19T13:07:41;82231.25;;;11.85;94.35
64711;BME280;51139;45.626;6.850;2022-08-19T13:10:13;82222.31;;;11.43;96.96
64711;BME280;51139;45.626;6.850;2022-08-19T13:12:41;82226.22;;;11.42;96.93